Terminal Aerodrome Forecast
Issued by NWS

Home | Current Version | Previous Version | Text Only | Print | Product List | Glossary On
Versions: 1 2 3 4 5 6 7 8 9 10 11 12 13 14 15 16 17 18 19 20 21 22 23 24 25 26 27 28 29 30 31 32 33 34 35 36 37 38
000
FTUS45 KVEF 301720
TAFLAS
TAF
KLAS 301720Z 3018/3118 19010G17KT 5SM DU SCT040 SCT120
     FM302000 20014G22KT P6SM VCTS SCT120CB SCT250
     FM310300 19010G18KT P6SM VCTS SCT120CB BKN250
     FM311200 19010KT P6SM SCT120 BKN250
     FM311700 18010G18KT P6SM SCT120 BKN250=

USA.gov is the U.S. government's official web portal to all federal, state and local government web resources and services.